sensor_id;sensor_type;location;lat;lon;timestamp;pressure;altitude;pressure_sealevel;temperature;humidity
66627;BME280;53498;50.422;14.912;2024-02-26T00:00:28;-24071.41;;;2.08;100.00
66627;BME280;53498;50.422;14.912;2024-02-26T00:03:14;-24071.25;;;2.07;100.00
66627;BME280;53498;50.422;14.912;2024-02-26T00:05:40;-24071.41;;;2.08;100.00
66627;BME280;53498;50.422;14.912;2024-02-26T00:08:06;-24073.09;;;2.14;100.00
66627;BME280;53498;50.422;14.912;2024-02-26T00:10:31;-24072.78;;;2.13;100.00
66627;BME280;53498;50.422;14.912;2024-02-26T00:12:57;-24071.88;;;2.09;100.00
66627;BME280;53498;50.422;14.912;2024-02-26T00:15:22;-24072.78;;;2.13;100.00
66627;BME280;53498;50.422;14.912;2024-02-26T00:17:48;-24070.31;;;2.04;100.00
66627;BME280;53498;50.422;14.912;2024-02-26T00:20:13;-24067.69;;;1.96;100.00
66627;BME280;53498;50.422;14.912;2024-02-26T00:22:39;-24068.44;;;1.98;100.00
66627;BME280;53498;50.422;14.912;2024-02-26T00:25:05;-24065.97;;;1.90;100.00
66627;BME280;53498;50.422;14.912;2024-02-26T00:27:31;-24067.53;;;1.95;100.00
66627;BME280;53498;50.422;14.912;2024-02-26T00:29:56;-24066.28;;;1.91;100.00
66627;BME280;53498;50.422;14.912;2024-02-26T00:32:22;-24063.78;;;1.83;100.00
66627;BME280;53498;50.422;14.912;2024-02-26T00:34:47;-24061.63;;;1.76;100.00
66627;BME280;53498;50.422;14.912;2024-02-26T00:37:13;-24065.19;;;1.88;100.00
66627;BME280;53498;50.422;14.912;2024-02-26T00:39:38;-24065.34;;;1.88;100.00
66627;BME280;53498;50.422;14.912;2024-02-26T00:42:05;-24065.19;;;1.88;100.00
66627;BME280;53498;50.422;14.912;2024-02-26T00:44:30;-24064.56;;;1.85;100.00
66627;BME280;53498;50.422;14.912;2024-02-26T00:46:56;-24062.25;;;1.78;100.00
66627;BME280;53498;50.422;14.912;2024-02-26T00:49:21;-24062.88;;;1.80;100.00
66627;BME280;53498;50.422;14.912;2024-02-26T00:51:47;-24060.38;;;1.72;100.00
66627;BME280;53498;50.422;14.912;2024-02-26T00:54:12;-24060.38;;;1.72;100.00
66627;BME280;53498;50.422;14.912;2024-02-26T00:56:38;-24061.94;;;1.77;100.00
66627;BME280;53498;50.422;14.912;2024-02-26T00:59:04;-24061.94;;;1.77;100.00
66627;BME280;53498;50.422;14.912;2024-02-26T01:01:29;-24061.63;;;1.76;100.00
66627;BME280;53498;50.422;14.912;2024-02-26T01:03:55;-24060.69;;;1.73;100.00
66627;BME280;53498;50.422;14.912;2024-02-26T01:06:20;-24058.84;;;1.67;100.00
66627;BME280;53498;50.422;14.912;2024-02-26T01:08:47;-24059.13;;;1.68;100.00
66627;BME280;53498;50.422;14.912;2024-02-26T01:11:13;-24057.28;;;1.61;100.00
66627;BME280;53498;50.422;14.912;2024-02-26T01:13:38;-24057.75;;;1.63;100.00
66627;BME280;53498;50.422;14.912;2024-02-26T01:16:04;-24058.84;;;1.67;100.00
66627;BME280;53498;50.422;14.912;2024-02-26T01:18:30;-24058.22;;;1.65;100.00
66627;BME280;53498;50.422;14.912;2024-02-26T01:20:56;-24054.16;;;1.51;100.00
66627;BME280;53498;50.422;14.912;2024-02-26T01:23:21;-24055.25;;;1.55;100.00
66627;BME280;53498;50.422;14.912;2024-02-26T01:25:47;-24054.47;;;1.52;100.00
66627;BME280;53498;50.422;14.912;2024-02-26T01:28:13;-24053.41;;;1.49;100.00
66627;BME280;53498;50.422;14.912;2024-02-26T01:30:39;-24054.31;;;1.52;100.00
66627;BME280;53498;50.422;14.912;2024-02-26T01:33:04;-24052.00;;;1.44;100.00
66627;BME280;53498;50.422;14.912;2024-02-26T01:35:30;-24053.56;;;1.49;100.00
66627;BME280;53498;50.422;14.912;2024-02-26T01:37:55;-24054.63;;;1.53;100.00
66627;BME280;53498;50.422;14.912;2024-02-26T01:40:21;-24056.03;;;1.57;100.00
66627;BME280;53498;50.422;14.912;2024-02-26T01:42:47;-24055.72;;;1.56;100.00
66627;BME280;53498;50.422;14.912;2024-02-26T01:45:15;-24054.47;;;1.52;100.00
66627;BME280;53498;50.422;14.912;2024-02-26T01:47:49;-24053.56;;;1.49;100.00
66627;BME280;53498;50.422;14.912;2024-02-26T01:50:16;-24051.22;;;1.42;100.00
66627;BME280;53498;50.422;14.912;2024-02-26T01:52:41;-24052.16;;;1.45;100.00
66627;BME280;53498;50.422;14.912;2024-02-26T01:55:07;-24049.50;;;1.36;100.00
66627;BME280;53498;50.422;14.912;2024-02-26T01:57:33;-24051.69;;;1.43;100.00
66627;BME280;53498;50.422;14.912;2024-02-26T01:59:59;-24052.47;;;1.46;100.00
66627;BME280;53498;50.422;14.912;2024-02-26T02:02:25;-24048.88;;;1.34;100.00
66627;BME280;53498;50.422;14.912;2024-02-26T02:04:51;-24049.50;;;1.36;100.00
66627;BME280;53498;50.422;14.912;2024-02-26T02:07:18;-24049.22;;;1.35;100.00
66627;BME280;53498;50.422;14.912;2024-02-26T02:09:44;-24050.28;;;1.38;100.00
66627;BME280;53498;50.422;14.912;2024-02-26T02:12:10;-24050.75;;;1.40;100.00
66627;BME280;53498;50.422;14.912;2024-02-26T02:14:36;-24049.03;;;1.34;100.00
66627;BME280;53498;50.422;14.912;2024-02-26T02:17:02;-24048.13;;;1.31;100.00
66627;BME280;53498;50.422;14.912;2024-02-26T02:19:27;-24048.44;;;1.32;100.00
66627;BME280;53498;50.422;14.912;2024-02-26T02:21:53;-24047.66;;;1.30;100.00
66627;BME280;53498;50.422;14.912;2024-02-26T02:24:18;-24047.66;;;1.30;100.00
66627;BME280;53498;50.422;14.912;2024-02-26T02:26:44;-24049.50;;;1.36;100.00
66627;BME280;53498;50.422;14.912;2024-02-26T02:29:11;-24050.28;;;1.38;100.00
66627;BME280;53498;50.422;14.912;2024-02-26T02:31:37;-24051.06;;;1.41;100.00
66627;BME280;53498;50.422;14.912;2024-02-26T02:34:03;-24049.03;;;1.34;100.00
66627;BME280;53498;50.422;14.912;2024-02-26T02:36:31;-24046.25;;;1.25;100.00
66627;BME280;53498;50.422;14.912;2024-02-26T02:38:57;-24047.03;;;1.28;100.00
66627;BME280;53498;50.422;14.912;2024-02-26T02:41:23;-24049.50;;;1.36;100.00
66627;BME280;53498;50.422;14.912;2024-02-26T02:43:48;-24047.97;;;1.31;100.00
66627;BME280;53498;50.422;14.912;2024-02-26T02:46:14;-24047.03;;;1.28;100.00
66627;BME280;53498;50.422;14.912;2024-02-26T02:48:41;-24045.94;;;1.24;100.00
66627;BME280;53498;50.422;14.912;2024-02-26T02:51:07;-24046.88;;;1.27;100.00
66627;BME280;53498;50.422;14.912;2024-02-26T02:53:32;-24046.56;;;1.26;100.00
66627;BME280;53498;50.422;14.912;2024-02-26T02:55:58;-24046.25;;;1.25;100.00
66627;BME280;53498;50.422;14.912;2024-02-26T02:58:23;-24045.16;;;1.22;100.00
66627;BME280;53498;50.422;14.912;2024-02-26T03:00:49;-24047.66;;;1.30;100.00
66627;BME280;53498;50.422;14.912;2024-02-26T03:03:14;-24047.50;;;1.29;100.00
66627;BME280;53498;50.422;14.912;2024-02-26T03:05:40;-24048.59;;;1.33;100.00
66627;BME280;53498;50.422;14.912;2024-02-26T03:08:09;-24049.66;;;1.36;100.00
66627;BME280;53498;50.422;14.912;2024-02-26T03:10:34;-24049.22;;;1.35;100.00
66627;BME280;53498;50.422;14.912;2024-02-26T03:13:01;-24048.13;;;1.31;100.00
66627;BME280;53498;50.422;14.912;2024-02-26T03:15:26;-24048.88;;;1.34;100.00
66627;BME280;53498;50.422;14.912;2024-02-26T03:17:52;-24049.50;;;1.36;100.00
66627;BME280;53498;50.422;14.912;2024-02-26T03:20:17;-24047.19;;;1.28;100.00
66627;BME280;53498;50.422;14.912;2024-02-26T03:22:44;-24048.13;;;1.31;100.00
66627;BME280;53498;50.422;14.912;2024-02-26T03:25:10;-24050.44;;;1.39;100.00
66627;BME280;53498;50.422;14.912;2024-02-26T03:27:36;-24049.03;;;1.34;100.00
66627;BME280;53498;50.422;14.912;2024-02-26T03:30:02;-24047.19;;;1.28;100.00
66627;BME280;53498;50.422;14.912;2024-02-26T03:32:29;-24043.00;;;1.14;100.00
66627;BME280;53498;50.422;14.912;2024-02-26T03:34:54;-24043.31;;;1.15;100.00
66627;BME280;53498;50.422;14.912;2024-02-26T03:37:21;-24042.84;;;1.14;100.00
66627;BME280;53498;50.422;14.912;2024-02-26T03:39:47;-24043.63;;;1.17;100.00
66627;BME280;53498;50.422;14.912;2024-02-26T03:42:12;-24044.22;;;1.19;100.00
66627;BME280;53498;50.422;14.912;2024-02-26T03:44:38;-24045.16;;;1.22;100.00
66627;BME280;53498;50.422;14.912;2024-02-26T03:47:03;-24046.25;;;1.25;100.00
66627;BME280;53498;50.422;14.912;2024-02-26T03:49:29;-24046.72;;;1.27;100.00
66627;BME280;53498;50.422;14.912;2024-02-26T03:51:55;-24045.63;;;1.23;100.00
66627;BME280;53498;50.422;14.912;2024-02-26T03:54:20;-24045.63;;;1.23;100.00
66627;BME280;53498;50.422;14.912;2024-02-26T03:56:46;-24047.66;;;1.30;100.00
66627;BME280;53498;50.422;14.912;2024-02-26T03:59:11;-24046.56;;;1.26;100.00
66627;BME280;53498;50.422;14.912;2024-02-26T04:01:37;-24046.41;;;1.26;100.00
66627;BME280;53498;50.422;14.912;2024-02-26T04:04:02;-24048.28;;;1.32;100.00
66627;BME280;53498;50.422;14.912;2024-02-26T04:06:28;-24048.88;;;1.34;100.00
66627;BME280;53498;50.422;14.912;2024-02-26T04:08:54;-24048.59;;;1.33;100.00
66627;BME280;53498;50.422;14.912;2024-02-26T04:11:19;-24046.72;;;1.27;100.00
66627;BME280;53498;50.422;14.912;2024-02-26T04:13:45;-24046.72;;;1.27;100.00
66627;BME280;53498;50.422;14.912;2024-02-26T04:16:12;-24049.03;;;1.34;100.00
66627;BME280;53498;50.422;14.912;2024-02-26T04:18:37;-24046.72;;;1.27;100.00
66627;BME280;53498;50.422;14.912;2024-02-26T04:21:04;-24047.03;;;1.28;100.00
66627;BME280;53498;50.422;14.912;2024-02-26T04:23:32;-24046.09;;;1.25;100.00
66627;BME280;53498;50.422;14.912;2024-02-26T04:25:58;-24046.41;;;1.26;100.00
66627;BME280;53498;50.422;14.912;2024-02-26T04:28:24;-24042.69;;;1.13;100.00
66627;BME280;53498;50.422;14.912;2024-02-26T04:30:55;-24044.38;;;1.19;100.00
66627;BME280;53498;50.422;14.912;2024-02-26T04:33:21;-24046.09;;;1.25;100.00
66627;BME280;53498;50.422;14.912;2024-02-26T04:35:47;-24045.94;;;1.24;100.00
66627;BME280;53498;50.422;14.912;2024-02-26T04:38:12;-24044.84;;;1.21;100.00
66627;BME280;53498;50.422;14.912;2024-02-26T04:40:38;-24043.63;;;1.17;100.00
66627;BME280;53498;50.422;14.912;2024-02-26T04:43:03;-24048.13;;;1.31;100.00
66627;BME280;53498;50.422;14.912;2024-02-26T04:45:29;-24050.44;;;1.39;100.00
66627;BME280;53498;50.422;14.912;2024-02-26T04:47:54;-24046.25;;;1.25;100.00
66627;BME280;53498;50.422;14.912;2024-02-26T04:50:20;-24047.66;;;1.30;100.00
66627;BME280;53498;50.422;14.912;2024-02-26T04:52:46;-24047.81;;;1.30;100.00
66627;BME280;53498;50.422;14.912;2024-02-26T04:55:12;-24049.34;;;1.35;100.00
66627;BME280;53498;50.422;14.912;2024-02-26T04:57:37;-24042.06;;;1.11;100.00
66627;BME280;53498;50.422;14.912;2024-02-26T05:00:04;-24043.91;;;1.18;100.00
66627;BME280;53498;50.422;14.912;2024-02-26T05:02:30;-24038.03;;;0.98;100.00
66627;BME280;53498;50.422;14.912;2024-02-26T05:04:57;-24040.03;;;1.05;100.00
66627;BME280;53498;50.422;14.912;2024-02-26T05:07:23;-24038.63;;;1.00;100.00
66627;BME280;53498;50.422;14.912;2024-02-26T05:09:49;-24036.78;;;0.94;100.00
66627;BME280;53498;50.422;14.912;2024-02-26T05:12:17;-24043.78;;;1.17;100.00
66627;BME280;53498;50.422;14.912;2024-02-26T05:14:43;-24046.56;;;1.26;100.00
66627;BME280;53498;50.422;14.912;2024-02-26T05:17:08;-24045.16;;;1.22;100.00
66627;BME280;53498;50.422;14.912;2024-02-26T05:19:34;-24041.75;;;1.10;100.00
66627;BME280;53498;50.422;14.912;2024-02-26T05:21:59;-24044.53;;;1.20;100.00
66627;BME280;53498;50.422;14.912;2024-02-26T05:24:25;-24046.09;;;1.25;100.00
66627;BME280;53498;50.422;14.912;2024-02-26T05:26:50;-24046.56;;;1.26;100.00
66627;BME280;53498;50.422;14.912;2024-02-26T05:29:16;-24048.75;;;1.33;100.00
66627;BME280;53498;50.422;14.912;2024-02-26T05:31:42;-24047.50;;;1.29;100.00
66627;BME280;53498;50.422;14.912;2024-02-26T05:34:08;-24048.44;;;1.32;100.00
66627;BME280;53498;50.422;14.912;2024-02-26T05:36:33;-24049.66;;;1.36;100.00
66627;BME280;53498;50.422;14.912;2024-02-26T05:39:00;-24048.59;;;1.33;100.00
66627;BME280;53498;50.422;14.912;2024-02-26T05:41:25;-24050.44;;;1.39;100.00
66627;BME280;53498;50.422;14.912;2024-02-26T05:43:52;-24051.06;;;1.41;100.00
66627;BME280;53498;50.422;14.912;2024-02-26T05:46:19;-24051.84;;;1.44;100.00
66627;BME280;53498;50.422;14.912;2024-02-26T05:48:47;-24051.53;;;1.43;100.00
66627;BME280;53498;50.422;14.912;2024-02-26T05:51:13;-24052.94;;;1.47;100.00
66627;BME280;53498;50.422;14.912;2024-02-26T05:53:38;-24052.00;;;1.44;100.00
66627;BME280;53498;50.422;14.912;2024-02-26T05:56:04;-24052.94;;;1.47;100.00
66627;BME280;53498;50.422;14.912;2024-02-26T05:58:29;-24057.44;;;1.62;100.00
66627;BME280;53498;50.422;14.912;2024-02-26T06:00:55;-24057.59;;;1.62;100.00
66627;BME280;53498;50.422;14.912;2024-02-26T06:03:24;-24057.75;;;1.63;100.00
66627;BME280;53498;50.422;14.912;2024-02-26T06:05:49;-24057.91;;;1.64;100.00
66627;BME280;53498;50.422;14.912;2024-02-26T06:08:15;-24057.75;;;1.63;100.00
66627;BME280;53498;50.422;14.912;2024-02-26T06:10:40;-24059.59;;;1.69;100.00
66627;BME280;53498;50.422;14.912;2024-02-26T06:13:06;-24059.28;;;1.68;100.00
66627;BME280;53498;50.422;14.912;2024-02-26T06:15:32;-24060.06;;;1.71;100.00
66627;BME280;53498;50.422;14.912;2024-02-26T06:17:57;-24060.06;;;1.71;100.00
66627;BME280;53498;50.422;14.912;2024-02-26T06:20:23;-24060.84;;;1.73;100.00
66627;BME280;53498;50.422;14.912;2024-02-26T06:22:49;-24061.63;;;1.76;100.00
66627;BME280;53498;50.422;14.912;2024-02-26T06:25:14;-24063.50;;;1.82;100.00
66627;BME280;53498;50.422;14.912;2024-02-26T06:27:40;-24066.75;;;1.93;100.00
66627;BME280;53498;50.422;14.912;2024-02-26T06:30:06;-24069.53;;;2.02;100.00
66627;BME280;53498;50.422;14.912;2024-02-26T06:32:32;-24072.03;;;2.10;100.00
66627;BME280;53498;50.422;14.912;2024-02-26T06:34:57;-24072.19;;;2.11;100.00
66627;BME280;53498;50.422;14.912;2024-02-26T06:37:23;-24075.44;;;2.21;100.00
66627;BME280;53498;50.422;14.912;2024-02-26T06:39:48;-24075.44;;;2.21;100.00
66627;BME280;53498;50.422;14.912;2024-02-26T06:42:14;-24073.09;;;2.14;100.00
66627;BME280;53498;50.422;14.912;2024-02-26T06:44:39;-24071.88;;;2.09;100.00
66627;BME280;53498;50.422;14.912;2024-02-26T06:47:05;-24072.78;;;2.13;100.00
66627;BME280;53498;50.422;14.912;2024-02-26T06:49:31;-24077.91;;;2.29;100.00
66627;BME280;53498;50.422;14.912;2024-02-26T06:51:57;-24078.22;;;2.30;100.00
66627;BME280;53498;50.422;14.912;2024-02-26T06:54:22;-24075.91;;;2.23;100.00
66627;BME280;53498;50.422;14.912;2024-02-26T06:56:48;-24077.28;;;2.27;100.00
66627;BME280;53498;50.422;14.912;2024-02-26T06:59:13;-24084.13;;;2.50;100.00
66627;BME280;53498;50.422;14.912;2024-02-26T07:01:42;-24083.19;;;2.47;100.00
66627;BME280;53498;50.422;14.912;2024-02-26T07:04:08;-24083.81;;;2.49;100.00
66627;BME280;53498;50.422;14.912;2024-02-26T07:06:34;-24090.16;;;2.70;100.00
66627;BME280;53498;50.422;14.912;2024-02-26T07:08:59;-24090.16;;;2.70;100.00
66627;BME280;53498;50.422;14.912;2024-02-26T07:11:25;-24095.44;;;2.87;100.00
66627;BME280;53498;50.422;14.912;2024-02-26T07:13:53;-24097.31;;;2.93;100.00
66627;BME280;53498;50.422;14.912;2024-02-26T07:16:19;-24101.63;;;3.08;100.00
66627;BME280;53498;50.422;14.912;2024-02-26T07:18:45;-24105.97;;;3.22;100.00
66627;BME280;53498;50.422;14.912;2024-02-26T07:21:11;-24109.09;;;3.32;100.00
66627;BME280;53498;50.422;14.912;2024-02-26T07:23:37;-24111.56;;;3.40;100.00
66627;BME280;53498;50.422;14.912;2024-02-26T07:26:03;-24112.34;;;3.43;100.00
66627;BME280;53498;50.422;14.912;2024-02-26T07:28:29;-24113.88;;;3.48;100.00
66627;BME280;53498;50.422;14.912;2024-02-26T07:30:54;-24114.19;;;3.49;100.00
66627;BME280;53498;50.422;14.912;2024-02-26T07:33:20;-24114.34;;;3.50;100.00
66627;BME280;53498;50.422;14.912;2024-02-26T07:35:45;-24114.97;;;3.52;100.00
66627;BME280;53498;50.422;14.912;2024-02-26T07:38:11;-24117.59;;;3.60;100.00
66627;BME280;53498;50.422;14.912;2024-02-26T07:40:38;-24120.38;;;3.69;100.00
66627;BME280;53498;50.422;14.912;2024-02-26T07:43:04;-24122.41;;;3.76;100.00
66627;BME280;53498;50.422;14.912;2024-02-26T07:45:29;-24124.88;;;3.84;100.00
66627;BME280;53498;50.422;14.912;2024-02-26T07:47:55;-24127.03;;;3.91;100.00
66627;BME280;53498;50.422;14.912;2024-02-26T07:50:20;-24130.16;;;4.02;100.00
66627;BME280;53498;50.422;14.912;2024-02-26T07:52:46;-24134.63;;;4.16;100.00
66627;BME280;53498;50.422;14.912;2024-02-26T07:55:12;-24138.81;;;4.30;100.00
66627;BME280;53498;50.422;14.912;2024-02-26T07:57:42;-24138.81;;;4.30;100.00
66627;BME280;53498;50.422;14.912;2024-02-26T08:00:08;-24143.91;;;4.47;100.00
66627;BME280;53498;50.422;14.912;2024-02-26T08:02:35;-24147.16;;;4.58;100.00
66627;BME280;53498;50.422;14.912;2024-02-26T08:05:00;-24149.66;;;4.66;100.00
66627;BME280;53498;50.422;14.912;2024-02-26T08:07:26;-24151.34;;;4.72;100.00
66627;BME280;53498;50.422;14.912;2024-02-26T08:09:55;-24152.91;;;4.77;100.00
66627;BME280;53498;50.422;14.912;2024-02-26T08:12:20;-24154.75;;;4.83;100.00
66627;BME280;53498;50.422;14.912;2024-02-26T08:14:46;-24156.00;;;4.87;100.00
66627;BME280;53498;50.422;14.912;2024-02-26T08:17:12;-24158.78;;;4.96;100.00
66627;BME280;53498;50.422;14.912;2024-02-26T08:19:37;-24160.47;;;5.02;100.00
66627;BME280;53498;50.422;14.912;2024-02-26T08:22:03;-24162.00;;;5.07;100.00
66627;BME280;53498;50.422;14.912;2024-02-26T08:24:28;-24163.25;;;5.11;100.00
66627;BME280;53498;50.422;14.912;2024-02-26T08:26:54;-24166.66;;;5.22;100.00
66627;BME280;53498;50.422;14.912;2024-02-26T08:29:20;-24168.34;;;5.28;100.00
66627;BME280;53498;50.422;14.912;2024-02-26T08:31:45;-24171.28;;;5.38;100.00
66627;BME280;53498;50.422;14.912;2024-02-26T08:34:11;-24172.22;;;5.41;100.00
66627;BME280;53498;50.422;14.912;2024-02-26T08:36:37;-24173.78;;;5.46;100.00
66627;BME280;53498;50.422;14.912;2024-02-26T08:39:02;-24175.00;;;5.50;100.00
66627;BME280;53498;50.422;14.912;2024-02-26T08:41:30;-24175.94;;;5.53;100.00
66627;BME280;53498;50.422;14.912;2024-02-26T08:43:55;-24176.09;;;5.53;100.00
66627;BME280;53498;50.422;14.912;2024-02-26T08:46:21;-24178.09;;;5.60;100.00
66627;BME280;53498;50.422;14.912;2024-02-26T08:48:46;-24179.50;;;5.65;100.00
66627;BME280;53498;50.422;14.912;2024-02-26T08:51:12;-24182.13;;;5.73;100.00
66627;BME280;53498;50.422;14.912;2024-02-26T08:53:38;-24184.59;;;5.82;100.00
66627;BME280;53498;50.422;14.912;2024-02-26T08:56:04;-24187.22;;;5.90;100.00
66627;BME280;53498;50.422;14.912;2024-02-26T08:58:30;-24188.59;;;5.95;100.00
66627;BME280;53498;50.422;14.912;2024-02-26T09:00:56;-24190.94;;;6.02;100.00
66627;BME280;53498;50.422;14.912;2024-02-26T09:03:22;-24193.25;;;6.10;100.00
66627;BME280;53498;50.422;14.912;2024-02-26T09:05:48;-24197.88;;;6.25;100.00
66627;BME280;53498;50.422;14.912;2024-02-26T09:08:14;-24199.88;;;6.32;100.00
66627;BME280;53498;50.422;14.912;2024-02-26T09:10:40;-24201.28;;;6.37;100.00
66627;BME280;53498;50.422;14.912;2024-02-26T09:13:05;-24200.03;;;6.33;100.00
66627;BME280;53498;50.422;14.912;2024-02-26T09:15:31;-24196.94;;;6.22;100.00
66627;BME280;53498;50.422;14.912;2024-02-26T09:17:57;-24196.31;;;6.20;100.00
66627;BME280;53498;50.422;14.912;2024-02-26T09:20:23;-24197.41;;;6.24;100.00
66627;BME280;53498;50.422;14.912;2024-02-26T09:22:49;-24199.41;;;6.31;100.00
66627;BME280;53498;50.422;14.912;2024-02-26T09:25:16;-24196.03;;;6.19;100.00
66627;BME280;53498;50.422;14.912;2024-02-26T09:27:42;-24199.41;;;6.31;100.00
66627;BME280;53498;50.422;14.912;2024-02-26T09:30:12;-24198.81;;;6.29;100.00
66627;BME280;53498;50.422;14.912;2024-02-26T09:32:38;-24205.91;;;6.52;100.00
66627;BME280;53498;50.422;14.912;2024-02-26T09:35:05;-24210.53;;;6.67;100.00
66627;BME280;53498;50.422;14.912;2024-02-26T09:37:30;-24208.06;;;6.59;100.00
66627;BME280;53498;50.422;14.912;2024-02-26T09:39:56;-24211.31;;;6.70;100.00
66627;BME280;53498;50.422;14.912;2024-02-26T09:42:25;-24217.34;;;6.90;100.00
66627;BME280;53498;50.422;14.912;2024-02-26T09:44:53;-24220.25;;;7.00;100.00
66627;BME280;53498;50.422;14.912;2024-02-26T09:47:21;-24225.50;;;7.17;100.00
66627;BME280;53498;50.422;14.912;2024-02-26T09:49:51;-24223.50;;;7.10;100.00
66627;BME280;53498;50.422;14.912;2024-02-26T09:52:19;-24220.88;;;7.02;100.00
66627;BME280;53498;50.422;14.912;2024-02-26T09:54:47;-24223.81;;;7.11;100.00
66627;BME280;53498;50.422;14.912;2024-02-26T09:57:14;-24227.03;;;7.22;100.00
66627;BME280;53498;50.422;14.912;2024-02-26T09:59:43;-24229.06;;;7.29;100.00
66627;BME280;53498;50.422;14.912;2024-02-26T10:02:12;-24231.53;;;7.37;100.00
66627;BME280;53498;50.422;14.912;2024-02-26T10:04:39;-24230.59;;;7.34;100.00
66627;BME280;53498;50.422;14.912;2024-02-26T10:07:10;-24234.91;;;7.48;100.00
66627;BME280;53498;50.422;14.912;2024-02-26T10:09:36;-24239.22;;;7.62;100.00
66627;BME280;53498;50.422;14.912;2024-02-26T10:12:02;-24237.38;;;7.56;100.00
66627;BME280;53498;50.422;14.912;2024-02-26T10:14:28;-24244.16;;;7.79;100.00
66627;BME280;53498;50.422;14.912;2024-02-26T10:16:54;-24243.84;;;7.78;100.00
66627;BME280;53498;50.422;14.912;2024-02-26T10:19:30;-24248.31;;;7.93;100.00
66627;BME280;53498;50.422;14.912;2024-02-26T10:22:00;-24250.63;;;8.00;100.00
66627;BME280;53498;50.422;14.912;2024-02-26T10:24:29;-24252.78;;;8.07;100.00
66627;BME280;53498;50.422;14.912;2024-02-26T10:26:55;-24250.63;;;8.00;100.00
66627;BME280;53498;50.422;14.912;2024-02-26T10:29:23;-24253.25;;;8.09;100.00
66627;BME280;53498;50.422;14.912;2024-02-26T10:31:51;-24255.88;;;8.18;100.00
66627;BME280;53498;50.422;14.912;2024-02-26T10:34:17;-24258.81;;;8.27;100.00
66627;BME280;53498;50.422;14.912;2024-02-26T10:36:43;-24253.41;;;8.09;100.00
66627;BME280;53498;50.422;14.912;2024-02-26T10:39:12;-24252.94;;;8.08;100.00
66627;BME280;53498;50.422;14.912;2024-02-26T10:41:40;-24253.09;;;8.08;100.00
66627;BME280;53498;50.422;14.912;2024-02-26T10:44:09;-24253.41;;;8.09;100.00
66627;BME280;53498;50.422;14.912;2024-02-26T10:46:36;-24247.41;;;7.89;100.00
66627;BME280;53498;50.422;14.912;2024-02-26T10:49:02;-24249.56;;;7.97;100.00
66627;BME280;53498;50.422;14.912;2024-02-26T10:51:29;-24251.25;;;8.02;100.00
66627;BME280;53498;50.422;14.912;2024-02-26T10:53:57;-24254.66;;;8.14;100.00
66627;BME280;53498;50.422;14.912;2024-02-26T10:56:28;-24252.50;;;8.06;100.00
66627;BME280;53498;50.422;14.912;2024-02-26T10:58:55;-24250.78;;;8.01;100.00
66627;BME280;53498;50.422;14.912;2024-02-26T11:01:21;-24258.66;;;8.27;100.00
66627;BME280;53498;50.422;14.912;2024-02-26T11:03:50;-24263.28;;;8.42;100.00
66627;BME280;53498;50.422;14.912;2024-02-26T11:06:17;-24265.75;;;8.50;100.00
66627;BME280;53498;50.422;14.912;2024-02-26T11:08:44;-24264.66;;;8.47;100.00
66627;BME280;53498;50.422;14.912;2024-02-26T11:11:13;-24266.97;;;8.54;100.00
66627;BME280;53498;50.422;14.912;2024-02-26T11:13:42;-24272.38;;;8.72;100.00
66627;BME280;53498;50.422;14.912;2024-02-26T11:16:18;-24272.66;;;8.73;100.00
66627;BME280;53498;50.422;14.912;2024-02-26T11:18:46;-24270.50;;;8.66;100.00
66627;BME280;53498;50.422;14.912;2024-02-26T11:21:15;-24272.38;;;8.72;100.00
66627;BME280;53498;50.422;14.912;2024-02-26T11:23:42;-24269.91;;;8.64;100.00
66627;BME280;53498;50.422;14.912;2024-02-26T11:26:09;-24273.44;;;8.76;100.00
66627;BME280;53498;50.422;14.912;2024-02-26T11:28:36;-24277.75;;;8.90;100.00
66627;BME280;53498;50.422;14.912;2024-02-26T11:31:04;-24277.44;;;8.89;99.11
66627;BME280;53498;50.422;14.912;2024-02-26T11:33:31;-24274.97;;;8.81;98.53
66627;BME280;53498;50.422;14.912;2024-02-26T11:35:57;-24268.06;;;8.58;97.52
66627;BME280;53498;50.422;14.912;2024-02-26T11:38:26;-24271.28;;;8.69;98.57
66627;BME280;53498;50.422;14.912;2024-02-26T11:40:53;-24266.97;;;8.54;91.85
66627;BME280;53498;50.422;14.912;2024-02-26T11:43:37;-24268.97;;;8.61;91.31
66627;BME280;53498;50.422;14.912;2024-02-26T11:46:25;-24268.81;;;8.61;90.61
66627;BME280;53498;50.422;14.912;2024-02-26T11:48:50;-24266.34;;;8.52;90.86
66627;BME280;53498;50.422;14.912;2024-02-26T11:51:17;-24263.91;;;8.44;91.27
66627;BME280;53498;50.422;14.912;2024-02-26T11:53:46;-24266.66;;;8.53;91.65
66627;BME280;53498;50.422;14.912;2024-02-26T11:58:42;-24263.91;;;8.44;93.58
66627;BME280;53498;50.422;14.912;2024-02-26T12:04:04;-24268.50;;;8.60;94.14
66627;BME280;53498;50.422;14.912;2024-02-26T12:06:30;-24268.81;;;8.61;94.11
66627;BME280;53498;50.422;14.912;2024-02-26T12:08:56;-24268.19;;;8.58;95.51
66627;BME280;53498;50.422;14.912;2024-02-26T12:11:22;-24269.28;;;8.62;96.33
66627;BME280;53498;50.422;14.912;2024-02-26T12:13:48;-24270.66;;;8.67;96.23
66627;BME280;53498;50.422;14.912;2024-02-26T12:16:35;-24263.91;;;8.44;96.26
66627;BME280;53498;50.422;14.912;2024-02-26T12:19:04;-24264.66;;;8.47;96.35
66627;BME280;53498;50.422;14.912;2024-02-26T12:21:29;-24264.66;;;8.47;95.67
66627;BME280;53498;50.422;14.912;2024-02-26T12:23:55;-24262.34;;;8.39;95.02
66627;BME280;53498;50.422;14.912;2024-02-26T12:26:21;-24263.91;;;8.44;95.49
66627;BME280;53498;50.422;14.912;2024-02-26T12:28:47;-24264.50;;;8.46;95.53
66627;BME280;53498;50.422;14.912;2024-02-26T12:31:12;-24266.97;;;8.54;96.08
66627;BME280;53498;50.422;14.912;2024-02-26T12:33:38;-24269.59;;;8.63;96.11
66627;BME280;53498;50.422;14.912;2024-02-26T12:36:04;-24263.59;;;8.43;94.55
66627;BME280;53498;50.422;14.912;2024-02-26T12:38:30;-24263.59;;;8.43;95.22
66627;BME280;53498;50.422;14.912;2024-02-26T12:40:56;-24268.50;;;8.60;94.81